Spar Draco — LAFO6 — position and weather

sailwx.info

Track history (hours):
 
Tides and Currents Weather Stations Pressure Air Temp Water Temp Dewpoint Dewpoint Depression Visibility Wind Speed Wind Dir Waves Ship Positions

Spar Draco

Last reported at 2016-Jun-17 04:33 UTC. Time now 2016-Jul-01 04:40 UTC.
Position N 30°30' E 122°24'.
Warning: this ship's position is 14 days out of date.

Length 190 m; draft 7 m.

Type: Cargo ship. MMSI: 257799000.

Date/timePositionNaut miles runAvg speedWind from/ knotsBaromVisibWave heightAir tempDewpointWater temp
2016-Jun-17 04:33N 30°30' E 122°24'14 0.8
2016-Jun-16 11:08N 30°40' E 122°37'711.5
2016-Jun-16 10:32N 30°46' E 122°35'4710.6
2016-Jun-16 06:06N 31°16' E 121°52'814.3
2016-Jun-16 05:32N 31°19' E 121°43'1111.8
2016-Jun-16 04:34N 31°25' E 121°31'1010.4
2016-Jun-16 03:33N 31°32' E 121°22'1313.2
2016-Jun-16 02:33N 31°41' E 121°11'12 0.3
2016-Jun-14 13:14N 31°46' E 120°58'0 0.0
2016-Jun-14 11:27N 31°46' E 120°58'0 0.0
2016-Jun-14 10:14N 31°46' E 120°58'0 0.1
2016-Jun-14 09:26N 31°46' E 120°58'0 0.0
2016-Jun-14 08:11N 31°46' E 120°58'0 0.0
2016-Jun-14 07:33N 31°46' E 120°58'0 0.0
2016-Jun-13 23:17N 31°46' E 120°58'0 0.0
2016-Jun-13 22:30N 31°46' E 120°58'0 0.0
2016-Jun-13 19:27N 31°46' E 120°58'2 0.1
2016-Jun-13 03:31N 31°47' E 120°60'8 8.4
2016-Jun-13 02:33N 31°43' E 121°08'8 8.1
2016-Jun-13 01:33N 31°38' E 121°15'1010.2
2016-Jun-13 00:33N 31°31' E 121°24'9 9.2
2016-Jun-12 23:33N 31°25' E 121°32'1110.9
2016-Jun-12 22:33N 31°19' E 121°43'1110.4
2016-Jun-12 21:29N 31°16' E 121°56'  
Track history (hours):
 
Tides and Currents Weather Stations Pressure Air Temp Water Temp Dewpoint Dewpoint Depression Visibility Wind Speed Wind Dir Waves Ship Positions

Spar Draco

Last reported at 2016-Jun-17 04:33 UTC. Time now 2016-Jul-01 04:40 UTC.
Position N 30°30' E 122°24'.
Warning: this ship's position is 14 days out of date.

Length 190 m; draft 7 m.

Type: Cargo ship. MMSI: 257799000.

Date/timePositionNaut miles runAvg speedWind from/ knotsBaromVisibWave heightAir tempDewpointWater temp
2016-Jun-17 04:33N 30°30' E 122°24'14 0.8
2016-Jun-16 11:08N 30°40' E 122°37'711.5
2016-Jun-16 10:32N 30°46' E 122°35'4710.6
2016-Jun-16 06:06N 31°16' E 121°52'814.3
2016-Jun-16 05:32N 31°19' E 121°43'1111.8
2016-Jun-16 04:34N 31°25' E 121°31'1010.4
2016-Jun-16 03:33N 31°32' E 121°22'1313.2
2016-Jun-16 02:33N 31°41' E 121°11'12 0.3
2016-Jun-14 13:14N 31°46' E 120°58'0 0.0
2016-Jun-14 11:27N 31°46' E 120°58'0 0.0
2016-Jun-14 10:14N 31°46' E 120°58'0 0.1
2016-Jun-14 09:26N 31°46' E 120°58'0 0.0
2016-Jun-14 08:11N 31°46' E 120°58'0 0.0
2016-Jun-14 07:33N 31°46' E 120°58'0 0.0
2016-Jun-13 23:17N 31°46' E 120°58'0 0.0
2016-Jun-13 22:30N 31°46' E 120°58'0 0.0
2016-Jun-13 19:27N 31°46' E 120°58'2 0.1
2016-Jun-13 03:31N 31°47' E 120°60'8 8.4
2016-Jun-13 02:33N 31°43' E 121°08'8 8.1
2016-Jun-13 01:33N 31°38' E 121°15'1010.2
2016-Jun-13 00:33N 31°31' E 121°24'9 9.2
2016-Jun-12 23:33N 31°25' E 121°32'1110.9
2016-Jun-12 22:33N 31°19' E 121°43'1110.4
2016-Jun-12 21:29N 31°16' E 121°56'  

Dump ship's entire track history